Time;durP1;ratioP1;P1;durP2;ratioP2;P2;SDS_P1;SDS_P2;PMS_P1;PMS_P2;Temp;Humidity;BMP_temperature;BMP_pressure;BME280_temperature;BME280_humidity;BME280_pressure;Samples;Min_cycle;Max_cycle;Signal;HPM_P1;HPM_P2
2022/03/30 00:01:37;;;;;;;32.83;13.40;;;4.50;99.90;;;;;;5010482;28;20054;-71
2022/03/30 00:04:03;;;;;;;31.00;13.98;;;4.50;99.90;;;;;;4994468;28;20042;-70
2022/03/30 00:06:29;;;;;;;36.42;15.02;;;4.50;99.90;;;;;;4995841;28;20122;-70
2022/03/30 00:08:55;;;;;;;28.67;13.93;;;4.50;99.90;;;;;;4977699;28;20061;-68
2022/03/30 00:11:22;;;;;;;32.63;13.82;;;4.50;99.90;;;;;;5008383;28;20056;-69
2022/03/30 00:13:48;;;;;;;35.33;14.57;;;4.50;99.90;;;;;;5012974;28;20069;-70
2022/03/30 00:16:14;;;;;;;34.17;14.93;;;4.50;99.90;;;;;;5011856;28;20086;-69
2022/03/30 00:18:40;;;;;;;33.92;15.27;;;5.60;99.90;;;;;;4988966;28;20089;-69
2022/03/30 00:21:06;;;;;;;38.50;15.05;;;4.40;99.90;;;;;;4993459;28;20104;-69
2022/03/30 00:23:32;;;;;;;30.52;14.40;;;4.40;99.90;;;;;;4984880;28;20054;-70
2022/03/30 00:25:58;;;;;;;40.58;15.13;;;4.40;99.90;;;;;;5008200;28;20043;-69
2022/03/30 00:28:27;;;;;;;38.83;15.63;;;4.40;99.90;;;;;;4990444;28;20061;-68
2022/03/30 00:30:53;;;;;;;32.50;14.55;;;4.40;99.90;;;;;;5009720;28;20065;-69
2022/03/30 00:33:19;;;;;;;33.97;15.13;;;4.40;99.90;;;;;;4993683;28;20287;-69
2022/03/30 00:35:46;;;;;;;34.47;14.63;;;4.40;99.90;;;;;;5011754;28;20560;-71
2022/03/30 00:38:12;;;;;;;35.35;15.00;;;4.10;99.90;;;;;;4994895;28;20170;-69
2022/03/30 00:40:38;;;;;;;38.30;14.55;;;4.40;99.90;;;;;;4983522;28;20050;-69
2022/03/30 00:43:04;;;;;;;29.95;13.55;;;4.40;99.90;;;;;;4970536;28;20050;-71
2022/03/30 00:45:30;;;;;;;30.88;13.32;;;4.30;99.90;;;;;;4998628;28;20473;-69
2022/03/30 00:47:56;;;;;;;31.63;15.02;;;4.30;99.90;;;;;;4978109;28;20046;-69
2022/03/30 00:50:23;;;;;;;35.13;14.88;;;4.30;99.90;;;;;;4992853;28;20117;-68
2022/03/30 00:52:54;;;;;;;32.47;14.68;;;4.30;99.90;;;;;;5011163;28;20052;-68
2022/03/30 00:55:21;;;;;;;31.35;13.95;;;4.20;99.90;;;;;;5009484;28;20172;-68
2022/03/30 00:57:47;;;;;;;32.78;13.95;;;4.10;99.90;;;;;;5014190;28;20565;-69
2022/03/30 01:00:15;;;;;;;40.75;15.63;;;4.20;99.90;;;;;;5003026;28;20551;-69
2022/03/30 01:02:44;;;;;;;39.90;14.55;;;4.20;99.90;;;;;;5001272;28;20426;-69
2022/03/30 01:05:11;;;;;;;38.38;14.27;;;4.80;99.90;;;;;;4989333;28;20462;-68
2022/03/30 01:07:37;;;;;;;37.53;15.20;;;4.20;99.90;;;;;;4985623;28;20054;-71
2022/03/30 01:10:04;;;;;;;35.10;13.73;;;4.20;99.90;;;;;;4990878;28;20060;-69
2022/03/30 01:12:32;;;;;;;36.78;15.10;;;4.20;99.90;;;;;;5007359;28;20054;-68
2022/03/30 01:14:59;;;;;;;34.08;14.57;;;4.20;99.90;;;;;;5022050;28;20074;-68
2022/03/30 01:17:25;;;;;;;34.65;14.75;;;4.20;99.90;;;;;;5006363;28;20125;-70
2022/03/30 01:19:52;;;;;;;44.28;15.98;;;4.20;99.90;;;;;;5006275;28;20121;-69
2022/03/30 01:22:18;;;;;;;40.47;14.85;;;4.20;99.90;;;;;;4999953;28;20475;-70
2022/03/30 01:24:44;;;;;;;34.10;13.98;;;4.20;99.90;;;;;;5007579;28;20125;-69
2022/03/30 01:27:11;;;;;;;41.63;15.60;;;4.30;99.90;;;;;;5025872;28;20562;-69
2022/03/30 01:32:26;;;;;;;34.78;14.85;;;4.30;99.90;;;;;;4998472;28;20133;-68
2022/03/30 01:34:54;;;;;;;38.15;15.10;;;4.30;99.90;;;;;;5001285;28;20049;-68
2022/03/30 01:37:21;;;;;;;37.03;15.93;;;4.40;99.90;;;;;;5009579;28;20050;-69
2022/03/30 01:39:46;;;;;;;36.80;15.20;;;4.40;99.90;;;;;;5010118;28;20085;-69
2022/03/30 01:42:13;;;;;;;39.25;16.15;;;4.50;99.90;;;;;;4989345;28;20078;-69
2022/03/30 01:44:39;;;;;;;35.15;15.43;;;4.50;99.90;;;;;;4998405;28;20046;-69
2022/03/30 01:47:05;;;;;;;33.50;14.07;;;4.60;99.90;;;;;;5001839;28;20042;-70
2022/03/30 01:49:31;;;;;;;38.92;15.13;;;4.60;99.90;;;;;;4994788;28;20049;-69
2022/03/30 01:51:59;;;;;;;41.15;15.02;;;4.70;99.90;;;;;;4992660;28;20133;-69
2022/03/30 01:54:26;;;;;;;35.05;15.02;;;4.70;99.90;;;;;;5010363;28;20058;-69
2022/03/30 01:56:55;;;;;;;44.45;15.32;;;4.70;99.90;;;;;;4999929;28;20112;-70
2022/03/30 01:59:22;;;;;;;38.05;14.43;;;4.80;99.90;;;;;;4994573;28;20487;-71
2022/03/30 02:01:48;;;;;;;45.58;15.43;;;4.80;99.90;;;;;;5008230;28;20061;-72
2022/03/30 02:04:14;;;;;;;38.53;15.27;;;4.80;99.90;;;;;;5002102;28;20049;-69
2022/03/30 02:06:41;;;;;;;40.88;15.18;;;4.80;99.90;;;;;;5011320;28;20042;-69
2022/03/30 02:09:08;;;;;;;36.83;13.90;;;4.90;99.90;;;;;;5011163;28;20132;-68
2022/03/30 02:11:35;;;;;;;39.42;14.98;;;4.90;99.90;;;;;;4998352;28;20061;-69
2022/03/30 02:14:01;;;;;;;30.52;13.95;;;4.90;99.90;;;;;;4993746;28;20487;-69
2022/03/30 02:16:27;;;;;;;42.58;14.77;;;4.90;99.90;;;;;;5007686;28;20054;-70
2022/03/30 02:18:54;;;;;;;36.17;14.02;;;4.90;99.90;;;;;;4992598;28;20042;-69
2022/03/30 02:21:20;;;;;;;33.08;13.00;;;4.90;99.90;;;;;;5000901;28;20064;-69
2022/03/30 02:23:46;;;;;;;33.00;13.43;;;4.90;99.90;;;;;;4999203;28;20042;-69
2022/03/30 02:26:14;;;;;;;31.70;13.88;;;5.00;99.90;;;;;;4975420;28;20230;-69
2022/03/30 02:28:41;;;;;;;33.35;14.57;;;5.00;99.90;;;;;;4996383;28;20398;-69
2022/03/30 02:31:07;;;;;;;35.20;14.35;;;5.00;99.90;;;;;;5016548;28;20048;-70
2022/03/30 02:33:33;;;;;;;32.78;13.75;;;5.00;99.90;;;;;;5002830;28;20050;-69
2022/03/30 02:35:59;;;;;;;32.72;13.98;;;5.00;99.90;;;;;;5009238;28;20127;-69
2022/03/30 02:38:25;;;;;;;34.60;13.75;;;5.10;99.90;;;;;;4992529;28;20066;-70
2022/03/30 02:40:51;;;;;;;32.13;14.07;;;5.10;99.90;;;;;;5011317;28;20168;-70
2022/03/30 02:43:19;;;;;;;38.30;14.00;;;5.10;99.90;;;;;;4971304;28;20499;-71
2022/03/30 02:45:49;;;;;;;33.53;13.25;;;5.10;99.90;;;;;;4988242;28;20050;-70
2022/03/30 02:48:19;;;;;;;33.35;12.48;;;5.20;99.90;;;;;;4983282;28;20052;-70
2022/03/30 02:50:47;;;;;;;33.25;13.55;;;5.20;99.90;;;;;;5015361;28;20129;-71
2022/03/30 02:53:14;;;;;;;37.90;12.80;;;5.20;99.90;;;;;;4995702;28;20050;-69
2022/03/30 02:55:40;;;;;;;35.30;13.13;;;5.20;99.90;;;;;;4986165;28;20065;-70
2022/03/30 02:58:06;;;;;;;32.65;12.82;;;5.20;99.90;;;;;;4975108;28;20137;-70
2022/03/30 03:00:32;;;;;;;38.65;12.45;;;5.20;99.90;;;;;;5019551;28;20491;-70
2022/03/30 03:03:00;;;;;;;40.38;15.10;;;5.20;99.90;;;;;;4985302;28;20058;-71
2022/03/30 03:05:31;;;;;;;41.38;14.55;;;5.20;99.90;;;;;;4994285;28;20053;-70
2022/03/30 03:08:01;;;;;;;38.78;14.85;;;5.20;99.90;;;;;;4993940;28;20073;-70
2022/03/30 03:10:28;;;;;;;38.33;12.98;;;5.20;99.90;;;;;;5010085;28;20403;-70
2022/03/30 03:12:55;;;;;;;45.13;14.80;;;5.30;99.90;;;;;;4970069;28;20048;-69
2022/03/30 03:15:22;;;;;;;41.65;14.68;;;5.30;99.90;;;;;;5009348;28;20073;-70
2022/03/30 03:17:48;;;;;;;40.17;15.20;;;5.30;99.90;;;;;;4998569;28;20554;-71
2022/03/30 03:20:14;;;;;;;39.50;12.82;;;5.30;99.90;;;;;;4994565;28;20077;-70
2022/03/30 03:22:41;;;;;;;44.08;14.95;;;5.30;99.90;;;;;;5006229;28;20487;-70
2022/03/30 03:25:09;;;;;;;41.65;15.10;;;5.30;99.90;;;;;;5000215;28;20046;-70
2022/03/30 03:27:35;;;;;;;37.53;13.07;;;5.30;99.90;;;;;;4984804;28;20038;-71
2022/03/30 03:30:02;;;;;;;37.70;14.30;;;5.30;99.90;;;;;;5017060;28;20050;-70
2022/03/30 03:32:28;;;;;;;36.70;14.13;;;5.40;99.90;;;;;;4989319;28;20073;-71
2022/03/30 03:34:54;;;;;;;40.65;15.20;;;5.40;99.90;;;;;;4985709;28;20085;-70
2022/03/30 03:37:20;;;;;;;35.67;13.35;;;5.40;99.90;;;;;;5004528;28;20042;-70
2022/03/30 03:39:46;;;;;;;31.83;11.88;;;5.40;99.90;;;;;;4990650;28;20058;-70
2022/03/30 03:42:12;;;;;;;31.88;12.63;;;5.50;99.90;;;;;;4988252;28;20058;-70
2022/03/30 03:44:38;;;;;;;32.88;11.82;;;5.50;99.90;;;;;;5009348;28;20057;-70
2022/03/30 03:47:07;;;;;;;34.17;12.05;;;5.60;99.90;;;;;;4978574;28;20049;-69
2022/03/30 03:49:33;;;;;;;25.35;10.05;;;5.60;99.90;;;;;;4982065;28;20051;-70
2022/03/30 03:51:59;;;;;;;19.40;6.93;;;5.60;99.90;;;;;;4972257;28;20411;-70
2022/03/30 03:54:25;;;;;;;15.15;5.90;;;5.60;99.90;;;;;;5000351;28;20053;-70
2022/03/30 03:56:51;;;;;;;14.95;5.72;;;5.60;99.90;;;;;;4993646;28;20068;-70
2022/03/30 03:59:17;;;;;;;9.77;5.15;;;5.60;99.90;;;;;;4985068;28;20471;-72
2022/03/30 04:01:43;;;;;;;14.13;4.93;;;5.70;99.90;;;;;;5010442;28;20045;-71
2022/03/30 04:04:09;;;;;;;10.82;4.25;;;5.60;99.90;;;;;;4988307;28;20321;-70
2022/03/30 04:06:35;;;;;;;11.95;4.75;;;5.60;99.90;;;;;;4991849;28;20050;-71
2022/03/30 04:09:01;;;;;;;9.50;4.05;;;5.60;99.90;;;;;;4981382;28;20050;-70
2022/03/30 04:11:27;;;;;;;8.00;3.38;;;5.60;99.90;;;;;;5008228;28;20057;-71
2022/03/30 04:13:53;;;;;;;9.73;3.53;;;5.60;99.90;;;;;;5014022;28;20049;-70
2022/03/30 04:16:19;;;;;;;6.93;3.40;;;5.60;99.90;;;;;;5008265;28;20092;-69
2022/03/30 04:18:45;;;;;;;7.63;3.60;;;5.60;99.90;;;;;;4994030;28;20050;-69
2022/03/30 04:21:11;;;;;;;9.23;3.22;;;5.60;99.90;;;;;;4993781;28;20176;-70
2022/03/30 04:23:37;;;;;;;8.27;3.28;;;5.60;99.90;;;;;;5003490;28;20165;-71
2022/03/30 04:26:04;;;;;;;9.15;3.58;;;5.60;99.90;;;;;;4979235;28;20402;-70
2022/03/30 04:28:30;;;;;;;7.50;3.45;;;5.50;99.90;;;;;;5003410;28;20111;-70
2022/03/30 04:30:56;;;;;;;7.90;3.40;;;5.60;99.90;;;;;;4978792;28;20454;-70
2022/03/30 04:33:22;;;;;;;9.73;3.67;;;5.50;99.90;;;;;;4984717;28;20085;-70
2022/03/30 04:35:48;;;;;;;9.85;3.42;;;5.50;99.90;;;;;;5008757;28;20053;-70
2022/03/30 04:38:15;;;;;;;10.73;3.30;;;5.40;99.90;;;;;;4988337;28;20480;-70
2022/03/30 04:40:41;;;;;;;6.63;3.05;;;5.40;99.90;;;;;;5009282;28;20128;-70
2022/03/30 04:43:07;;;;;;;10.68;3.22;;;5.40;99.90;;;;;;4987972;28;20054;-70
2022/03/30 04:45:33;;;;;;;8.05;2.75;;;5.40;99.90;;;;;;5008133;28;20042;-70
2022/03/30 04:48:00;;;;;;;6.28;2.80;;;5.30;99.90;;;;;;4986105;28;20042;-70
2022/03/30 04:50:26;;;;;;;5.25;2.65;;;5.30;99.90;;;;;;4976729;28;20050;-70
2022/03/30 04:52:52;;;;;;;5.53;2.65;;;5.20;99.90;;;;;;5009872;28;20200;-70
2022/03/30 04:55:19;;;;;;;6.10;2.30;;;5.20;99.90;;;;;;4993346;28;20057;-70
2022/03/30 04:57:46;;;;;;;3.80;2.00;;;5.20;99.90;;;;;;5002077;28;20496;-72
2022/03/30 05:00:12;;;;;;;3.88;1.92;;;5.20;99.90;;;;;;4985617;28;20050;-70
2022/03/30 05:02:40;;;;;;;4.38;1.88;;;6.00;99.90;;;;;;4991102;28;20050;-70
2022/03/30 05:05:08;;;;;;;5.00;1.90;;;5.00;99.90;;;;;;4996874;28;20056;-71
2022/03/30 05:07:35;;;;;;;2.20;1.42;;;4.90;99.90;;;;;;4984708;28;20137;-70
2022/03/30 05:10:01;;;;;;;2.33;1.80;;;4.90;99.90;;;;;;4974414;28;20050;-70
2022/03/30 05:12:27;;;;;;;4.07;1.88;;;4.80;99.90;;;;;;4989019;28;20104;-69
2022/03/30 05:14:53;;;;;;;2.78;1.70;;;4.80;99.90;;;;;;4991908;28;20120;-71
2022/03/30 05:17:19;;;;;;;2.15;1.50;;;4.70;99.90;;;;;;4973815;28;20303;-71
2022/03/30 05:19:44;;;;;;;1.67;1.30;;;4.70;99.90;;;;;;4971852;28;20069;-70
2022/03/30 05:22:11;;;;;;;2.40;1.40;;;4.70;99.90;;;;;;4986369;28;20422;-69
2022/03/30 05:24:37;;;;;;;1.90;1.30;;;4.70;99.90;;;;;;4990656;28;20047;-70
2022/03/30 05:27:03;;;;;;;1.75;1.40;;;4.80;99.90;;;;;;5000920;28;20050;-71
2022/03/30 05:29:30;;;;;;;2.13;1.52;;;4.80;99.90;;;;;;5005589;28;20490;-70
2022/03/30 05:31:56;;;;;;;2.15;1.60;;;4.80;99.90;;;;;;4983226;28;20058;-70
2022/03/30 05:34:22;;;;;;;2.13;1.40;;;4.90;99.90;;;;;;4971328;28;20469;-70
2022/03/30 05:36:48;;;;;;;2.17;1.50;;;4.90;99.90;;;;;;4997432;28;20048;-72
2022/03/30 05:39:14;;;;;;;1.95;1.45;;;5.00;99.90;;;;;;4994069;28;20061;-70
2022/03/30 05:41:40;;;;;;;2.65;1.52;;;4.40;99.90;;;;;;4974405;28;20410;-70
2022/03/30 05:44:06;;;;;;;1.17;1.08;;;5.00;99.90;;;;;;5005732;28;20046;-70
2022/03/30 05:46:32;;;;;;;1.30;1.20;;;5.00;99.90;;;;;;4972026;28;20054;-69
2022/03/30 05:48:58;;;;;;;2.53;0.98;;;5.00;99.90;;;;;;4987043;28;20124;-72
2022/03/30 05:51:24;;;;;;;1.10;1.00;;;4.90;99.90;;;;;;4953173;28;20125;-70
2022/03/30 05:53:50;;;;;;;2.60;1.10;;;4.90;99.90;;;;;;5000429;28;20046;-70
2022/03/30 05:56:16;;;;;;;1.30;1.10;;;4.90;99.90;;;;;;5007683;28;20057;-70
2022/03/30 05:58:42;;;;;;;1.70;1.13;;;4.90;99.90;;;;;;4989364;28;20077;-69
2022/03/30 06:01:09;;;;;;;2.65;0.90;;;4.90;99.90;;;;;;4984002;28;20050;-70
2022/03/30 06:03:37;;;;;;;1.23;1.10;;;4.90;99.90;;;;;;4985166;28;20045;-70
2022/03/30 06:06:07;;;;;;;1.95;1.17;;;4.90;99.90;;;;;;5014921;28;20113;-70
2022/03/30 06:08:34;;;;;;;2.17;1.10;;;4.90;99.90;;;;;;4999858;28;20398;-70
2022/03/30 06:11:00;;;;;;;2.08;1.23;;;4.90;99.90;;;;;;4962380;28;20438;-70
2022/03/30 06:13:26;;;;;;;1.83;1.10;;;6.10;99.90;;;;;;5006739;28;20124;-70
2022/03/30 06:15:52;;;;;;;1.58;1.02;;;5.00;99.90;;;;;;5006789;28;20061;-70
2022/03/30 06:18:18;;;;;;;4.78;1.10;;;5.00;99.90;;;;;;4996046;28;20054;-71
2022/03/30 06:20:44;;;;;;;1.90;1.10;;;5.00;99.90;;;;;;4983667;28;20125;-71
2022/03/30 06:23:11;;;;;;;3.03;1.50;;;5.00;99.90;;;;;;4990119;28;20042;-69
2022/03/30 06:25:37;;;;;;;3.55;1.20;;;5.00;99.90;;;;;;4989025;28;20085;-70
2022/03/30 06:28:03;;;;;;;1.83;1.13;;;5.10;99.90;;;;;;4992526;28;20533;-70
2022/03/30 06:30:29;;;;;;;3.85;1.30;;;5.10;99.90;;;;;;4976500;28;20491;-71
2022/03/30 06:32:56;;;;;;;2.80;0.95;;;5.20;99.90;;;;;;4990572;28;20429;-71
2022/03/30 06:35:22;;;;;;;4.22;1.40;;;5.20;99.90;;;;;;4986405;28;20554;-69
2022/03/30 06:37:48;;;;;;;3.47;1.60;;;5.20;99.90;;;;;;4991119;28;20046;-70
2022/03/30 06:40:15;;;;;;;1.63;1.23;;;5.30;99.90;;;;;;4987976;28;20050;-70
2022/03/30 06:42:42;;;;;;;1.80;1.27;;;5.30;99.90;;;;;;4982342;28;20042;-72
2022/03/30 06:45:10;;;;;;;3.30;1.42;;;5.40;99.90;;;;;;4987362;28;20054;-72
2022/03/30 06:47:37;;;;;;;4.20;1.55;;;5.40;99.90;;;;;;4987413;28;20145;-72
2022/03/30 06:50:05;;;;;;;2.92;1.20;;;5.40;99.90;;;;;;4992124;28;20050;-71
2022/03/30 06:52:32;;;;;;;3.28;1.50;;;5.50;99.90;;;;;;4983453;28;20050;-72
2022/03/30 06:54:59;;;;;;;4.30;1.63;;;5.60;99.90;;;;;;5004923;28;20053;-72
2022/03/30 06:57:27;;;;;;;2.92;1.35;;;5.90;99.90;;;;;;5010146;28;20069;-72
2022/03/30 06:59:53;;;;;;;3.63;1.40;;;5.70;99.90;;;;;;4953800;28;20120;-74
2022/03/30 07:02:19;;;;;;;7.55;1.88;;;5.70;99.90;;;;;;4972793;28;20049;-71
2022/03/30 07:04:45;;;;;;;3.35;1.02;;;5.70;99.90;;;;;;4984443;28;20451;-72
2022/03/30 07:12:40;;;;;;;3.42;1.15;;;5.90;99.90;;;;;;5007648;28;20041;-72
2022/03/30 07:15:06;;;;;;;3.47;1.17;;;6.00;99.90;;;;;;5011508;28;20527;-71
2022/03/30 07:17:33;;;;;;;2.47;0.98;;;6.00;99.90;;;;;;4982568;28;20093;-72
2022/03/30 07:19:59;;;;;;;7.10;1.65;;;6.10;99.90;;;;;;4991883;28;20050;-72
2022/03/30 07:22:26;;;;;;;4.40;1.02;;;6.20;99.90;;;;;;4991760;28;20046;-71
2022/03/30 07:24:52;;;;;;;2.72;1.23;;;6.30;99.90;;;;;;5001720;28;20425;-73
2022/03/30 07:27:18;;;;;;;6.00;1.40;;;6.30;99.90;;;;;;5009036;28;20073;-74
2022/03/30 07:29:44;;;;;;;4.80;1.10;;;6.40;99.90;;;;;;4991744;28;20066;-71
2022/03/30 07:32:10;;;;;;;5.10;1.20;;;6.50;99.90;;;;;;4993795;28;20089;-71
2022/03/30 07:34:36;;;;;;;7.13;1.30;;;6.50;99.90;;;;;;4981775;28;20047;-71
2022/03/30 07:37:04;;;;;;;3.85;1.20;;;6.60;99.90;;;;;;4984828;28;20058;-71
2022/03/30 07:39:30;;;;;;;6.22;1.48;;;6.70;99.90;;;;;;4976864;28;20085;-71
2022/03/30 07:41:56;;;;;;;6.25;1.38;;;6.80;99.90;;;;;;4998812;28;20065;-71
2022/03/30 07:44:22;;;;;;;4.72;1.15;;;6.90;99.90;;;;;;5006346;28;20046;-71
2022/03/30 07:46:48;;;;;;;2.90;1.00;;;7.00;99.90;;;;;;4986971;28;20057;-72
2022/03/30 07:49:15;;;;;;;3.78;1.20;;;7.10;99.90;;;;;;4988269;28;20049;-72
2022/03/30 07:51:42;;;;;;;3.53;1.42;;;7.10;99.90;;;;;;4992650;28;20514;-72
2022/03/30 07:54:08;;;;;;;5.40;1.10;;;7.20;99.90;;;;;;4997732;28;20056;-71
2022/03/30 07:56:34;;;;;;;5.00;1.20;;;7.30;99.90;;;;;;4962186;28;20073;-72
2022/03/30 07:59:00;;;;;;;4.28;1.50;;;7.20;99.90;;;;;;4974471;28;20054;-71
2022/03/30 08:01:27;;;;;;;5.57;1.42;;;7.30;99.90;;;;;;4988295;28;20050;-71
2022/03/30 08:03:53;;;;;;;5.93;1.48;;;7.40;99.90;;;;;;4985327;28;20057;-72
2022/03/30 08:06:18;;;;;;;2.45;1.10;;;7.40;99.90;;;;;;4995471;28;20136;-71
2022/03/30 08:08:44;;;;;;;4.18;1.10;;;7.40;99.90;;;;;;4998437;28;20132;-71
2022/03/30 08:11:10;;;;;;;5.25;1.20;;;7.50;99.90;;;;;;4997089;28;20046;-71
2022/03/30 08:13:36;;;;;;;3.17;1.27;;;7.60;99.90;;;;;;5009038;28;20061;-72
2022/03/30 08:16:03;;;;;;;6.65;1.20;;;7.50;99.90;;;;;;5007656;28;20054;-71
2022/03/30 08:18:29;;;;;;;3.70;1.30;;;7.70;99.90;;;;;;4970035;28;20486;-71
2022/03/30 08:23:39;;;;;;;6.50;1.98;;;7.90;99.90;;;;;;4994100;28;20050;-73
2022/03/30 08:26:05;;;;;;;8.05;1.92;;;7.80;99.90;;;;;;5010109;28;20052;-71
2022/03/30 08:28:31;;;;;;;4.85;1.95;;;7.80;99.90;;;;;;4997217;28;20449;-71
2022/03/30 08:30:58;;;;;;;7.25;1.60;;;7.90;99.90;;;;;;4991944;28;20047;-71
2022/03/30 08:33:26;;;;;;;4.78;1.48;;;8.00;99.90;;;;;;4984932;28;20049;-70
2022/03/30 08:35:56;;;;;;;2.15;1.55;;;8.00;99.90;;;;;;4993679;28;20133;-74
2022/03/30 08:38:22;;;;;;;4.60;1.40;;;8.00;99.90;;;;;;4991609;28;20050;-71
2022/03/30 08:40:49;;;;;;;5.65;1.42;;;7.80;99.90;;;;;;5012946;28;20103;-71
2022/03/30 08:43:15;;;;;;;4.63;1.67;;;7.80;99.90;;;;;;4986546;28;20050;-71
2022/03/30 08:45:41;;;;;;;4.25;1.90;;;7.70;99.90;;;;;;5004985;28;20074;-71
2022/03/30 08:48:07;;;;;;;5.18;1.77;;;7.50;99.90;;;;;;5004976;28;20394;-71
2022/03/30 08:50:34;;;;;;;6.35;1.67;;;7.50;99.90;;;;;;4991661;28;20065;-71
2022/03/30 08:53:04;;;;;;;5.57;1.50;;;7.40;99.90;;;;;;5013279;28;20073;-71
2022/03/30 08:55:31;;;;;;;5.72;1.52;;;7.10;99.90;;;;;;5011613;28;20081;-74
2022/03/30 08:57:57;;;;;;;4.78;1.60;;;6.80;99.90;;;;;;4988783;28;20081;-76
2022/03/30 09:00:24;;;;;;;3.47;1.42;;;6.80;99.90;;;;;;5008042;28;20499;-76
2022/03/30 09:02:59;;;;;;;4.75;1.95;;;7.00;99.90;;;;;;5004225;28;20045;-73
2022/03/30 09:05:28;;;;;;;3.17;1.30;;;7.10;99.90;;;;;;5006286;28;20043;-75
2022/03/30 09:08:15;;;;;;;4.32;1.35;;;7.20;99.90;;;;;;4988581;28;20057;-74
2022/03/30 09:10:43;;;;;;;3.47;1.50;;;7.20;99.90;;;;;;5002494;28;20402;-73
2022/03/30 09:13:11;;;;;;;3.67;1.20;;;7.30;99.90;;;;;;5009718;28;20050;-73
2022/03/30 09:15:38;;;;;;;4.05;1.30;;;7.50;99.90;;;;;;5003543;28;20049;-73
2022/03/30 09:18:07;;;;;;;3.45;1.20;;;7.60;99.90;;;;;;4986495;28;20050;-72
2022/03/30 09:20:35;;;;;;;4.30;1.08;;;7.70;99.90;;;;;;4989834;28;20050;-71
2022/03/30 09:23:02;;;;;;;2.60;1.15;;;7.90;99.90;;;;;;5020537;28;20125;-69
2022/03/30 09:25:30;;;;;;;7.53;1.50;;;8.10;99.90;;;;;;5002983;28;20113;-72
2022/03/30 09:27:58;;;;;;;2.50;1.48;;;8.10;99.90;;;;;;4995995;28;20547;-72
2022/03/30 09:30:26;;;;;;;2.60;1.50;;;8.30;99.90;;;;;;4994741;28;20049;-72
2022/03/30 09:33:02;;;;;;;4.72;1.30;;;8.40;99.90;;;;;;5012751;28;20053;-69
2022/03/30 09:35:38;;;;;;;3.88;1.50;;;8.40;99.90;;;;;;4990908;28;20072;-72
2022/03/30 09:38:15;;;;;;;4.43;1.52;;;8.40;99.90;;;;;;5001803;28;20077;-71
2022/03/30 09:41:03;;;;;;;4.65;1.50;;;8.50;99.90;;;;;;4993277;28;21323;-70
2022/03/30 09:43:31;;;;;;;6.72;1.67;;;8.60;99.90;;;;;;4983657;28;20502;-71
2022/03/30 09:46:08;;;;;;;5.03;1.63;;;8.50;99.90;;;;;;4997956;28;20046;-71
2022/03/30 09:48:43;;;;;;;5.47;1.90;;;8.70;99.90;;;;;;5011761;28;20081;-73
2022/03/30 09:51:11;;;;;;;3.95;1.52;;;8.90;99.90;;;;;;5001206;28;20433;-73
2022/03/30 09:53:37;;;;;;;5.35;1.40;;;8.90;99.90;;;;;;4993920;28;20045;-73
2022/03/30 09:56:22;;;;;;;3.33;1.20;;;8.90;99.90;;;;;;5008306;28;20054;-74
2022/03/30 09:58:49;;;;;;;4.28;1.35;;;9.00;99.90;;;;;;5002653;28;20081;-75
2022/03/30 10:01:22;;;;;;;7.43;1.38;;;9.00;99.90;;;;;;5026944;28;20088;-74
2022/03/30 10:03:57;;;;;;;2.90;1.40;;;9.00;99.90;;;;;;4982888;28;20494;-75
2022/03/30 10:06:27;;;;;;;4.07;1.52;;;9.00;99.90;;;;;;4992267;28;20046;-74
2022/03/30 10:08:54;;;;;;;3.35;1.45;;;9.00;99.90;;;;;;4967227;28;20515;-75
2022/03/30 10:11:22;;;;;;;2.90;1.10;;;9.20;99.90;;;;;;5006493;28;20058;-74
2022/03/30 10:13:56;;;;;;;5.63;1.30;;;8.90;99.90;;;;;;4997350;28;20161;-76
2022/03/30 10:16:23;;;;;;;8.02;1.50;;;8.90;99.90;;;;;;5004031;28;20054;-74
2022/03/30 10:18:51;;;;;;;3.63;1.15;;;9.00;99.90;;;;;;5002562;28;20079;-74
2022/03/30 10:21:41;;;;;;;7.85;1.48;;;9.00;99.90;;;;;;5009875;28;20049;-75
2022/03/30 10:24:10;;;;;;;3.05;1.13;;;9.00;99.90;;;;;;5004245;28;20050;-74
2022/03/30 10:26:55;;;;;;;4.50;1.05;;;9.20;99.90;;;;;;4987031;28;20069;-75
2022/03/30 10:29:24;;;;;;;3.88;0.98;;;9.30;99.90;;;;;;5007627;28;20054;-85
2022/03/30 10:32:09;;;;;;;2.92;1.13;;;9.20;99.90;;;;;;5010925;28;20045;-74
2022/03/30 10:34:50;;;;;;;13.70;1.52;;;9.20;99.90;;;;;;5008058;28;20050;-75
2022/03/30 10:37:28;;;;;;;;;;;9.20;99.90;;;;;;4994277;28;20050;-74
2022/03/30 10:39:56;;;;;;;2.90;0.80;;;9.20;99.90;;;;;;4990951;28;20522;-74
2022/03/30 10:42:23;;;;;;;5.72;1.30;;;9.20;99.90;;;;;;5004477;28;20055;-73
2022/03/30 10:44:58;;;;;;;4.38;1.00;;;9.50;99.90;;;;;;5001235;28;20143;-73
2022/03/30 10:47:29;;;;;;;4.10;1.10;;;9.60;99.90;;;;;;5010009;28;20486;-75
2022/03/30 10:49:58;;;;;;;2.10;1.10;;;9.50;99.90;;;;;;5004553;28;20464;-74
2022/03/30 10:52:35;;;;;;;3.40;0.90;;;9.60;99.90;;;;;;5010345;28;20049;-74
2022/03/30 10:55:13;;;;;;;3.35;1.40;;;9.70;99.90;;;;;;5010202;28;20065;-75
2022/03/30 10:57:58;;;;;;;4.72;1.00;;;9.90;99.90;;;;;;4986217;28;20052;-74
2022/03/30 11:00:37;;;;;;;3.50;1.02;;;9.90;99.90;;;;;;5011198;28;20042;-73
2022/03/30 11:03:16;;;;;;;3.60;1.50;;;10.10;99.90;;;;;;5001358;28;20053;-77
2022/03/30 11:06:05;;;;;;;2.33;1.02;;;10.20;99.90;;;;;;5011720;28;20069;-74
2022/03/30 11:08:34;;;;;;;2.55;1.20;;;10.40;99.90;;;;;;5005518;28;20503;-74
2022/03/30 11:11:04;;;;;;;7.10;1.40;;;10.50;99.90;;;;;;5002475;28;20077;-74
2022/03/30 11:13:30;;;;;;;3.83;1.35;;;10.60;99.90;;;;;;4976570;28;20054;-74
2022/03/30 11:15:59;;;;;;;5.20;1.20;;;10.70;99.90;;;;;;4987366;28;20511;-73
2022/03/30 11:18:26;;;;;;;2.35;1.10;;;10.80;99.90;;;;;;4980448;28;20042;-75
2022/03/30 11:21:19;;;;;;;5.50;1.45;;;10.50;99.90;;;;;;5008872;28;20050;-71
2022/03/30 11:23:58;;;;;;;121.00;9.45;;;10.80;99.90;;;;;;5011358;28;20101;-71
2022/03/30 11:26:50;;;;;;;3.05;1.13;;;10.90;99.90;;;;;;5026228;28;20078;-71
2022/03/30 11:29:41;;;;;;;4.43;1.30;;;11.20;99.90;;;;;;5018220;28;20061;-71
2022/03/30 11:32:19;;;;;;;4.28;1.52;;;11.40;99.90;;;;;;5005558;28;20402;-71
2022/03/30 11:34:54;;;;;;;10.35;1.60;;;11.20;99.90;;;;;;5020233;28;20096;-71
2022/03/30 11:37:31;;;;;;;5.38;1.55;;;11.30;99.90;;;;;;5013648;28;20045;-72
2022/03/30 11:40:09;;;;;;;6.10;1.48;;;11.20;99.90;;;;;;5012896;28;20057;-73
2022/03/30 11:42:37;;;;;;;6.13;1.00;;;11.10;99.90;;;;;;5014561;28;20139;-72
2022/03/30 11:45:14;;;;;;;2.10;1.50;;;10.90;99.90;;;;;;5013538;28;20046;-71
2022/03/30 11:47:45;;;;;;;6.13;1.30;;;10.50;99.90;;;;;;4996538;28;20038;-71
2022/03/30 11:50:13;;;;;;;3.57;1.20;;;10.30;99.90;;;;;;4995204;28;20085;-71
2022/03/30 11:52:39;;;;;;;8.75;1.35;;;10.20;99.90;;;;;;4994840;28;20050;-71
2022/03/30 11:55:07;;;;;;;6.80;1.60;;;10.10;99.90;;;;;;5005825;28;20050;-71
2022/03/30 11:57:39;;;;;;;10.38;1.98;;;10.20;99.90;;;;;;5010548;28;20053;-71
2022/03/30 12:00:09;;;;;;;7.13;1.70;;;10.10;99.90;;;;;;5011357;28;20104;-71
2022/03/30 12:02:36;;;;;;;3.25;1.33;;;10.10;99.90;;;;;;5014101;28;20060;-72
2022/03/30 12:05:02;;;;;;;2.88;1.10;;;10.30;99.90;;;;;;4996817;28;20092;-71
2022/03/30 12:07:34;;;;;;;5.07;1.48;;;10.10;99.90;;;;;;4997366;28;20473;-71
2022/03/30 12:10:02;;;;;;;5.93;0.98;;;10.10;99.90;;;;;;5007186;28;20045;-72
2022/03/30 12:12:37;;;;;;;3.00;1.00;;;10.20;99.90;;;;;;5014019;28;20100;-71
2022/03/30 12:15:15;;;;;;;4.60;1.00;;;10.40;99.90;;;;;;4993695;28;20073;-71
2022/03/30 12:17:42;;;;;;;3.05;1.10;;;10.40;99.90;;;;;;4995615;28;20413;-71
2022/03/30 12:20:10;;;;;;;5.90;1.85;;;10.50;99.90;;;;;;4997003;28;20050;-76
2022/03/30 12:22:37;;;;;;;5.72;1.00;;;10.50;99.90;;;;;;5007394;28;20084;-77
2022/03/30 12:25:16;;;;;;;3.08;1.58;;;10.40;99.90;;;;;;5017638;28;20058;-71
2022/03/30 12:27:42;;;;;;;3.53;1.20;;;10.30;93.40;;;;;;4995518;28;20478;-71
2022/03/30 12:30:08;;;;;;;6.47;1.23;;;10.40;99.90;;;;;;5002037;28;20041;-69
2022/03/30 12:32:34;;;;;;;5.80;1.27;;;10.20;99.90;;;;;;5011973;28;20082;-70
2022/03/30 12:35:16;;;;;;;3.95;1.02;;;10.40;99.90;;;;;;5006440;28;20458;-70
2022/03/30 12:37:46;;;;;;;6.80;1.25;;;10.30;97.80;;;;;;5011399;28;20049;-70
2022/03/30 12:40:14;;;;;;;4.40;1.00;;;10.30;99.90;;;;;;5011366;28;20128;-71
2022/03/30 12:42:41;;;;;;;4.10;1.10;;;10.20;99.90;;;;;;4978538;28;20046;-70
2022/03/30 12:45:14;;;;;;;3.15;1.00;;;9.90;99.90;;;;;;5010903;28;20042;-70
2022/03/30 12:47:51;;;;;;;1.88;1.05;;;9.80;99.90;;;;;;4984734;28;20052;-72
2022/03/30 12:50:23;;;;;;;5.90;1.10;;;9.80;99.90;;;;;;4994507;28;20050;-71
2022/03/30 12:52:51;;;;;;;2.95;1.27;;;9.70;99.90;;;;;;4998640;28;20398;-70
2022/03/30 12:55:32;;;;;;;4.40;1.40;;;9.50;99.90;;;;;;4991864;28;20513;-71
2022/03/30 12:58:13;;;;;;;3.93;1.33;;;9.60;99.90;;;;;;4984213;28;20038;-70
2022/03/30 13:00:42;;;;;;;5.80;1.20;;;9.90;99.90;;;;;;4995872;28;20789;-71
2022/03/30 13:03:14;;;;;;;3.95;1.20;;;9.80;99.90;;;;;;4966799;28;20137;-72
2022/03/30 13:05:45;;;;;;;3.67;1.42;;;9.70;99.90;;;;;;5001275;28;20050;-72
2022/03/30 13:08:16;;;;;;;;;;;9.70;99.90;;;;;;5008644;28;20486;-69